sensor_id;sensor_type;location;lat;lon;timestamp;pressure;altitude;pressure_sealevel;temperature;humidity
58245;BME280;44550;43.864;25.986;2022-10-03T00:01:54;100910.19;;;14.98;64.44
58245;BME280;44550;43.864;25.986;2022-10-03T00:06:05;100909.31;;;14.96;64.89
58245;BME280;44550;43.864;25.986;2022-10-03T00:10:20;100924.16;;;15.06;64.46
58245;BME280;44550;43.864;25.986;2022-10-03T00:14:29;100930.34;;;15.02;64.59
58245;BME280;44550;43.864;25.986;2022-10-03T00:18:41;100932.00;;;15.12;64.31
58245;BME280;44550;43.864;25.986;2022-10-03T00:22:51;100912.72;;;15.09;64.45
58245;BME280;44550;43.864;25.986;2022-10-03T00:27:02;100907.53;;;14.99;64.77
58245;BME280;44550;43.864;25.986;2022-10-03T00:31:11;100897.09;;;14.89;64.83
58245;BME280;44550;43.864;25.986;2022-10-03T00:35:21;100878.66;;;14.89;64.84
58245;BME280;44550;43.864;25.986;2022-10-03T00:39:44;100890.97;;;14.88;64.96
58245;BME280;44550;43.864;25.986;2022-10-03T00:44:27;100881.34;;;14.84;64.77
58245;BME280;44550;43.864;25.986;2022-10-03T00:49:17;100893.56;;;14.94;64.82
58245;BME280;44550;43.864;25.986;2022-10-03T00:53:38;100901.44;;;14.93;65.02
58245;BME280;44550;43.864;25.986;2022-10-03T00:57:56;100872.66;;;14.74;64.85
58245;BME280;44550;43.864;25.986;2022-10-03T01:02:18;100891.06;;;14.76;65.68
58245;BME280;44550;43.864;25.986;2022-10-03T01:06:29;100838.59;;;14.53;65.50
58245;BME280;44550;43.864;25.986;2022-10-03T01:10:39;100865.69;;;14.66;65.88
58245;BME280;44550;43.864;25.986;2022-10-03T01:14:59;100845.63;;;14.49;66.67
58245;BME280;44550;43.864;25.986;2022-10-03T01:19:22;100853.53;;;14.46;67.19
58245;BME280;44550;43.864;25.986;2022-10-03T01:23:40;100858.81;;;14.45;67.10
58245;BME280;44550;43.864;25.986;2022-10-03T01:27:49;100866.78;;;14.34;67.66
58245;BME280;44550;43.864;25.986;2022-10-03T01:32:13;100877.25;;;14.40;67.61
58245;BME280;44550;43.864;25.986;2022-10-03T01:36:20;100863.28;;;14.35;67.62
58245;BME280;44550;43.864;25.986;2022-10-03T01:40:28;100856.38;;;14.17;67.90
58245;BME280;44550;43.864;25.986;2022-10-03T01:44:38;100890.50;;;14.26;68.35
58245;BME280;44550;43.864;25.986;2022-10-03T01:48:50;100893.97;;;14.31;68.26
58245;BME280;44550;43.864;25.986;2022-10-03T01:52:55;100866.84;;;14.23;68.07
58245;BME280;44550;43.864;25.986;2022-10-03T01:56:59;100887.75;;;14.43;67.80
58245;BME280;44550;43.864;25.986;2022-10-03T02:01:08;100880.03;;;14.17;68.37
58245;BME280;44550;43.864;25.986;2022-10-03T02:05:16;100895.75;;;14.23;68.29
58245;BME280;44550;43.864;25.986;2022-10-03T02:09:26;100902.75;;;14.29;68.28
58245;BME280;44550;43.864;25.986;2022-10-03T02:13:29;100893.97;;;14.34;67.77
58245;BME280;44550;43.864;25.986;2022-10-03T02:17:50;100915.03;;;14.27;68.18
58245;BME280;44550;43.864;25.986;2022-10-03T02:21:55;100912.44;;;14.24;68.48
58245;BME280;44550;43.864;25.986;2022-10-03T02:30:19;100908.09;;;14.18;68.45
58245;BME280;44550;43.864;25.986;2022-10-03T02:34:28;100872.31;;;13.80;68.84
58245;BME280;44550;43.864;25.986;2022-10-03T02:38:52;100919.53;;;14.05;68.98
58245;BME280;44550;43.864;25.986;2022-10-03T02:43:24;100912.53;;;14.05;69.15
58245;BME280;44550;43.864;25.986;2022-10-03T02:47:39;100905.53;;;14.00;69.10
58245;BME280;44550;43.864;25.986;2022-10-03T02:52:03;100896.78;;;13.99;69.20
58245;BME280;44550;43.864;25.986;2022-10-03T02:56:42;100880.16;;;13.94;69.21
58245;BME280;44550;43.864;25.986;2022-10-03T03:01:23;100901.19;;;13.94;69.44
58245;BME280;44550;43.864;25.986;2022-10-03T03:06:02;100909.94;;;13.90;69.97
58245;BME280;44550;43.864;25.986;2022-10-03T03:19:43;100903.75;;;14.03;69.85
58245;BME280;44550;43.864;25.986;2022-10-03T03:28:32;100869.56;;;14.08;69.51
58245;BME280;44550;43.864;25.986;2022-10-03T03:32:50;100865.94;;;14.26;68.76
58245;BME280;44550;43.864;25.986;2022-10-03T03:36:58;100852.78;;;14.30;68.49
58245;BME280;44550;43.864;25.986;2022-10-03T03:41:31;100845.78;;;14.26;68.38
58245;BME280;44550;43.864;25.986;2022-10-03T03:45:49;100839.53;;;14.40;68.30
58245;BME280;44550;43.864;25.986;2022-10-03T03:50:11;100860.59;;;14.41;67.96
58245;BME280;44550;43.864;25.986;2022-10-03T03:54:37;100855.28;;;14.46;67.86
58245;BME280;44550;43.864;25.986;2022-10-03T03:58:48;100843.88;;;14.47;67.80
58245;BME280;44550;43.864;25.986;2022-10-03T04:03:18;100845.63;;;14.54;67.83
58245;BME280;44550;43.864;25.986;2022-10-03T04:07:31;100848.28;;;14.45;68.41
58245;BME280;44550;43.864;25.986;2022-10-03T04:11:40;100842.16;;;14.47;68.30
58245;BME280;44550;43.864;25.986;2022-10-03T04:15:56;100831.81;;;14.21;69.47
58245;BME280;44550;43.864;25.986;2022-10-03T04:20:10;100852.84;;;14.18;70.02
58245;BME280;44550;43.864;25.986;2022-10-03T04:24:29;100840.50;;;14.31;69.76
58245;BME280;44550;43.864;25.986;2022-10-03T04:28:57;100855.38;;;14.33;69.84
58245;BME280;44550;43.864;25.986;2022-10-03T04:33:18;100860.59;;;14.41;69.62
58245;BME280;44550;43.864;25.986;2022-10-03T04:37:31;100872.84;;;14.51;69.22
58245;BME280;44550;43.864;25.986;2022-10-03T04:41:46;100880.72;;;14.54;69.38
58245;BME280;44550;43.864;25.986;2022-10-03T04:46:17;100888.59;;;14.53;69.63
58245;BME280;44550;43.864;25.986;2022-10-03T04:50:27;100898.16;;;14.63;69.50
58245;BME280;44550;43.864;25.986;2022-10-03T04:54:39;100898.19;;;14.65;69.43
58245;BME280;44550;43.864;25.986;2022-10-03T04:58:54;100906.97;;;14.62;69.52
58245;BME280;44550;43.864;25.986;2022-10-03T05:03:03;100867.72;;;14.22;70.21
58245;BME280;44550;43.864;25.986;2022-10-03T05:07:11;100916.66;;;14.57;71.34
58245;BME280;44550;43.864;25.986;2022-10-03T05:11:20;100911.50;;;14.37;72.97
58245;BME280;44550;43.864;25.986;2022-10-03T05:15:27;100921.91;;;14.49;75.02
58245;BME280;44550;43.864;25.986;2022-10-03T05:19:41;100912.38;;;14.30;76.74
58245;BME280;44550;43.864;25.986;2022-10-03T05:23:49;100902.88;;;14.09;78.95
58245;BME280;44550;43.864;25.986;2022-10-03T05:28:06;100902.88;;;14.06;80.42
58245;BME280;44550;43.864;25.986;2022-10-03T05:32:22;100895.00;;;14.00;81.78
58245;BME280;44550;43.864;25.986;2022-10-03T05:36:30;100892.41;;;14.01;82.38
58245;BME280;44550;43.864;25.986;2022-10-03T05:40:34;100880.19;;;13.91;83.44
58245;BME280;44550;43.864;25.986;2022-10-03T05:44:40;100867.81;;;14.07;83.79
58245;BME280;44550;43.864;25.986;2022-10-03T05:48:46;100877.41;;;14.17;83.27
58245;BME280;44550;43.864;25.986;2022-10-03T05:53:07;100875.75;;;14.01;83.78
58245;BME280;44550;43.864;25.986;2022-10-03T05:57:42;100866.91;;;14.09;84.30
58245;BME280;44550;43.864;25.986;2022-10-03T06:06:32;100887.03;;;14.17;83.17
58245;BME280;44550;43.864;25.986;2022-10-03T06:10:47;100908.13;;;14.12;83.84
58245;BME280;44550;43.864;25.986;2022-10-03T06:15:08;100908.16;;;14.07;84.19
58245;BME280;44550;43.864;25.986;2022-10-03T06:19:21;100891.41;;;14.21;83.86
58245;BME280;44550;43.864;25.986;2022-10-03T06:28:24;100902.69;;;14.44;83.98
58245;BME280;44550;43.864;25.986;2022-10-03T06:33:00;100904.44;;;14.44;83.66
58245;BME280;44550;43.864;25.986;2022-10-03T06:37:28;100902.75;;;14.30;84.41
58245;BME280;44550;43.864;25.986;2022-10-03T06:42:05;100891.34;;;14.27;84.62
58245;BME280;44550;43.864;25.986;2022-10-03T06:50:52;100904.63;;;14.07;87.55
58245;BME280;44550;43.864;25.986;2022-10-03T06:55:25;100913.41;;;14.06;87.25
58245;BME280;44550;43.864;25.986;2022-10-03T06:59:54;100913.47;;;13.92;88.95
58245;BME280;44550;43.864;25.986;2022-10-03T07:04:16;100909.94;;;13.96;89.55
58245;BME280;44550;43.864;25.986;2022-10-03T07:08:40;100917.81;;;13.99;89.07
58245;BME280;44550;43.864;25.986;2022-10-03T07:27:04;100909.72;;;14.41;88.54
58245;BME280;44550;43.864;25.986;2022-10-03T07:31:17;100908.88;;;14.32;87.67
58245;BME280;44550;43.864;25.986;2022-10-03T07:35:39;100899.31;;;14.18;88.69
58245;BME280;44550;43.864;25.986;2022-10-03T07:49:18;100892.34;;;14.10;89.85
58245;BME280;44550;43.864;25.986;2022-10-03T07:53:42;100868.72;;;14.00;90.50
58245;BME280;44550;43.864;25.986;2022-10-03T07:58:20;100878.25;;;14.19;91.61
58245;BME280;44550;43.864;25.986;2022-10-03T08:07:23;100880.59;;;14.68;90.00
58245;BME280;44550;43.864;25.986;2022-10-03T08:11:40;100876.06;;;14.87;89.94
58245;BME280;44550;43.864;25.986;2022-10-03T08:16:01;100875.94;;;15.01;88.50
58245;BME280;44550;43.864;25.986;2022-10-03T08:20:33;100882.97;;;15.00;88.53
58245;BME280;44550;43.864;25.986;2022-10-03T08:30:05;100889.72;;;15.26;88.05
58245;BME280;44550;43.864;25.986;2022-10-03T08:34:34;100885.38;;;15.23;88.32
58245;BME280;44550;43.864;25.986;2022-10-03T08:38:51;100887.81;;;15.42;87.47
58245;BME280;44550;43.864;25.986;2022-10-03T08:43:31;100891.16;;;15.58;87.46
58245;BME280;44550;43.864;25.986;2022-10-03T08:52:26;100886.47;;;15.84;85.75
58245;BME280;44550;43.864;25.986;2022-10-03T08:56:54;100880.88;;;16.10;84.74
58245;BME280;44550;43.864;25.986;2022-10-03T09:01:20;100871.34;;;16.00;83.90
58245;BME280;44550;43.864;25.986;2022-10-03T09:14:57;100892.53;;;16.56;82.12
58245;BME280;44550;43.864;25.986;2022-10-03T09:19:32;100874.78;;;16.65;81.04
58245;BME280;44550;43.864;25.986;2022-10-03T09:23:56;100872.00;;;16.76;80.91
58245;BME280;44550;43.864;25.986;2022-10-03T09:33:34;100837.09;;;16.54;79.84
58245;BME280;44550;43.864;25.986;2022-10-03T09:47:59;100854.59;;;17.14;78.13
58245;BME280;44550;43.864;25.986;2022-10-03T09:52:24;100842.34;;;17.08;79.02
58245;BME280;44550;43.864;25.986;2022-10-03T10:01:19;100857.72;;;17.34;76.42
58245;BME280;44550;43.864;25.986;2022-10-03T10:14:52;100843.41;;;17.00;77.81
58245;BME280;44550;43.864;25.986;2022-10-03T10:19:25;100809.06;;;17.00;76.53
58245;BME280;44550;43.864;25.986;2022-10-03T10:23:41;100840.81;;;17.43;76.08
58245;BME280;44550;43.864;25.986;2022-10-03T10:28:08;100844.06;;;17.12;76.58
58245;BME280;44550;43.864;25.986;2022-10-03T10:37:31;100823.31;;;16.91;78.63
58245;BME280;44550;43.864;25.986;2022-10-03T10:42:05;100828.31;;;17.05;78.51
58245;BME280;44550;43.864;25.986;2022-10-03T11:00:32;100802.13;;;17.82;74.82
58245;BME280;44550;43.864;25.986;2022-10-03T11:05:17;100808.00;;;17.55;75.69
58245;BME280;44550;43.864;25.986;2022-10-03T11:09:46;100801.69;;;17.60;76.73
58245;BME280;44550;43.864;25.986;2022-10-03T11:14:12;100788.56;;;17.56;75.75
58245;BME280;44550;43.864;25.986;2022-10-03T11:41:50;100774.59;;;18.28;72.54
58245;BME280;44550;43.864;25.986;2022-10-03T11:45:54;100774.19;;;18.45;72.94
58245;BME280;44550;43.864;25.986;2022-10-03T11:50:32;100762.44;;;18.55;72.79
58245;BME280;44550;43.864;25.986;2022-10-03T11:54:38;100761.09;;;18.75;72.76
58245;BME280;44550;43.864;25.986;2022-10-03T11:58:53;100758.06;;;18.89;72.55
58245;BME280;44550;43.864;25.986;2022-10-03T12:03:11;100726.34;;;18.86;68.43
58245;BME280;44550;43.864;25.986;2022-10-03T12:07:26;100724.16;;;19.01;68.20
58245;BME280;44550;43.864;25.986;2022-10-03T12:11:52;100739.94;;;19.36;65.79
58245;BME280;44550;43.864;25.986;2022-10-03T12:15:59;100744.00;;;19.18;64.68
58245;BME280;44550;43.864;25.986;2022-10-03T12:20:04;100728.88;;;19.21;65.15
58245;BME280;44550;43.864;25.986;2022-10-03T12:24:24;100733.19;;;19.25;65.74
58245;BME280;44550;43.864;25.986;2022-10-03T12:28:29;100712.28;;;19.44;66.13
58245;BME280;44550;43.864;25.986;2022-10-03T12:32:45;100700.22;;;19.92;65.00
58245;BME280;44550;43.864;25.986;2022-10-03T12:37:01;100711.69;;;20.19;63.17
58245;BME280;44550;43.864;25.986;2022-10-03T12:41:17;100682.41;;;20.22;62.49
58245;BME280;44550;43.864;25.986;2022-10-03T12:45:24;100691.72;;;20.85;61.18
58245;BME280;44550;43.864;25.986;2022-10-03T12:49:40;100682.47;;;20.96;59.10
58245;BME280;44550;43.864;25.986;2022-10-03T12:53:52;100659.03;;;20.83;58.90
58245;BME280;44550;43.864;25.986;2022-10-03T12:58:01;100691.44;;;20.43;57.28
58245;BME280;44550;43.864;25.986;2022-10-03T13:02:22;100695.25;;;20.34;57.58
58245;BME280;44550;43.864;25.986;2022-10-03T13:11:10;100682.25;;;20.27;56.99
58245;BME280;44550;43.864;25.986;2022-10-03T13:15:39;100634.91;;;20.13;58.41
58245;BME280;44550;43.864;25.986;2022-10-03T13:19:47;100676.25;;;20.72;57.99
58245;BME280;44550;43.864;25.986;2022-10-03T13:23:55;100666.97;;;20.60;58.74
58245;BME280;44550;43.864;25.986;2022-10-03T13:28:04;100647.38;;;20.86;58.03
58245;BME280;44550;43.864;25.986;2022-10-03T13:32:12;100681.44;;;21.00;57.54
58245;BME280;44550;43.864;25.986;2022-10-03T13:36:20;100693.28;;;20.14;51.04
58245;BME280;44550;43.864;25.986;2022-10-03T13:40:28;100680.94;;;19.29;52.20
58245;BME280;44550;43.864;25.986;2022-10-03T13:44:35;100712.84;;;19.26;54.99
58245;BME280;44550;43.864;25.986;2022-10-03T13:48:36;100711.38;;;19.16;54.20
58245;BME280;44550;43.864;25.986;2022-10-03T13:52:39;100711.38;;;19.16;55.09
58245;BME280;44550;43.864;25.986;2022-10-03T13:56:50;100708.19;;;19.03;54.52
58245;BME280;44550;43.864;25.986;2022-10-03T14:01:10;100695.38;;;19.19;54.65
58245;BME280;44550;43.864;25.986;2022-10-03T14:05:32;100696.47;;;19.12;55.17
58245;BME280;44550;43.864;25.986;2022-10-03T14:09:41;100684.56;;;18.95;55.37
58245;BME280;44550;43.864;25.986;2022-10-03T14:14:06;100666.69;;;18.72;56.36
58245;BME280;44550;43.864;25.986;2022-10-03T14:18:28;100654.97;;;18.14;60.44
58245;BME280;44550;43.864;25.986;2022-10-03T14:22:43;100666.59;;;18.08;61.75
58245;BME280;44550;43.864;25.986;2022-10-03T14:26:52;100677.34;;;18.01;60.97
58245;BME280;44550;43.864;25.986;2022-10-03T14:31:05;100604.41;;;17.91;60.77
58245;BME280;44550;43.864;25.986;2022-10-03T14:35:20;100672.88;;;18.37;60.57
58245;BME280;44550;43.864;25.986;2022-10-03T14:39:31;100660.97;;;18.53;59.97
58245;BME280;44550;43.864;25.986;2022-10-03T14:43:40;100679.84;;;18.75;59.43
58245;BME280;44550;43.864;25.986;2022-10-03T14:47:51;100690.09;;;18.55;60.53
58245;BME280;44550;43.864;25.986;2022-10-03T14:51:57;100727.16;;;18.55;60.81
58245;BME280;44550;43.864;25.986;2022-10-03T14:56:02;100715.88;;;18.47;65.57
58245;BME280;44550;43.864;25.986;2022-10-03T15:00:04;100722.09;;;18.12;65.84
58245;BME280;44550;43.864;25.986;2022-10-03T15:04:15;100702.25;;;17.55;69.54
58245;BME280;44550;43.864;25.986;2022-10-03T15:08:20;100723.28;;;17.59;70.38
58245;BME280;44550;43.864;25.986;2022-10-03T15:12:23;100732.72;;;17.70;69.90
58245;BME280;44550;43.864;25.986;2022-10-03T15:16:25;100738.72;;;18.17;69.46
58245;BME280;44550;43.864;25.986;2022-10-03T15:20:33;100749.28;;;18.52;67.62
58245;BME280;44550;43.864;25.986;2022-10-03T15:24:34;100749.44;;;18.46;66.21
58245;BME280;44550;43.864;25.986;2022-10-03T15:28:37;100730.97;;;18.43;65.26
58245;BME280;44550;43.864;25.986;2022-10-03T15:32:40;100710.63;;;18.45;65.05
58245;BME280;44550;43.864;25.986;2022-10-03T15:36:48;100754.41;;;18.93;64.53
58245;BME280;44550;43.864;25.986;2022-10-03T15:41:06;100721.19;;;18.81;63.55
58245;BME280;44550;43.864;25.986;2022-10-03T15:45:17;100757.69;;;19.02;64.39
58245;BME280;44550;43.864;25.986;2022-10-03T15:49:21;100747.09;;;19.02;65.42
58245;BME280;44550;43.864;25.986;2022-10-03T15:53:27;100771.19;;;18.93;67.28
58245;BME280;44550;43.864;25.986;2022-10-03T15:57:35;100755.94;;;18.67;68.26
58245;BME280;44550;43.864;25.986;2022-10-03T16:01:38;100760.81;;;18.50;68.22
58245;BME280;44550;43.864;25.986;2022-10-03T16:05:52;100776.31;;;18.31;68.97
58245;BME280;44550;43.864;25.986;2022-10-03T16:10:06;100771.81;;;18.35;69.00
58245;BME280;44550;43.864;25.986;2022-10-03T16:14:16;100782.75;;;18.19;70.48
58245;BME280;44550;43.864;25.986;2022-10-03T16:18:55;100781.25;;;18.07;70.50
58245;BME280;44550;43.864;25.986;2022-10-03T16:22:57;100784.59;;;17.78;70.59
58245;BME280;44550;43.864;25.986;2022-10-03T16:27:10;100801.81;;;17.96;70.07
58245;BME280;44550;43.864;25.986;2022-10-03T16:31:18;100801.88;;;17.95;71.06
58245;BME280;44550;43.864;25.986;2022-10-03T16:35:34;100805.72;;;17.80;71.83
58245;BME280;44550;43.864;25.986;2022-10-03T16:39:35;100800.69;;;17.65;72.96
58245;BME280;44550;43.864;25.986;2022-10-03T16:43:38;100802.78;;;17.50;73.31
58245;BME280;44550;43.864;25.986;2022-10-03T16:47:40;100780.31;;;17.28;73.58
58245;BME280;44550;43.864;25.986;2022-10-03T16:51:43;100834.38;;;17.56;73.25
58245;BME280;44550;43.864;25.986;2022-10-03T16:55:46;100824.31;;;17.75;73.22
58245;BME280;44550;43.864;25.986;2022-10-03T16:59:49;100817.22;;;17.77;70.31
58245;BME280;44550;43.864;25.986;2022-10-03T17:03:54;100828.53;;;17.86;70.49
58245;BME280;44550;43.864;25.986;2022-10-03T17:07:58;100831.50;;;17.69;70.24
58245;BME280;44550;43.864;25.986;2022-10-03T17:12:24;100830.81;;;17.59;67.81
58245;BME280;44550;43.864;25.986;2022-10-03T17:16:35;100810.84;;;17.44;68.41
58245;BME280;44550;43.864;25.986;2022-10-03T17:20:44;100832.94;;;17.85;63.86
58245;BME280;44550;43.864;25.986;2022-10-03T17:24:48;100835.75;;;18.16;61.36
58245;BME280;44550;43.864;25.986;2022-10-03T17:28:54;100818.59;;;17.95;58.56
58245;BME280;44550;43.864;25.986;2022-10-03T17:33:01;100786.53;;;17.69;58.73
58245;BME280;44550;43.864;25.986;2022-10-03T17:37:13;100840.09;;;17.80;57.64
58245;BME280;44550;43.864;25.986;2022-10-03T17:41:20;100849.69;;;17.84;58.39
58245;BME280;44550;43.864;25.986;2022-10-03T17:45:30;100845.47;;;17.74;57.77
58245;BME280;44550;43.864;25.986;2022-10-03T17:49:47;100801.47;;;17.28;58.47
58245;BME280;44550;43.864;25.986;2022-10-03T17:53:51;100838.41;;;17.32;58.11
58245;BME280;44550;43.864;25.986;2022-10-03T17:57:58;100848.28;;;17.23;58.24
58245;BME280;44550;43.864;25.986;2022-10-03T18:02:05;100819.78;;;16.92;58.56
58245;BME280;44550;43.864;25.986;2022-10-03T18:06:38;100866.13;;;17.10;59.30
58245;BME280;44550;43.864;25.986;2022-10-03T18:10:45;100870.63;;;17.03;59.19
58245;BME280;44550;43.864;25.986;2022-10-03T18:15:15;100860.53;;;16.74;59.53
58245;BME280;44550;43.864;25.986;2022-10-03T18:19:32;100891.34;;;16.77;60.30
58245;BME280;44550;43.864;25.986;2022-10-03T18:23:50;100868.78;;;16.56;60.42
58245;BME280;44550;43.864;25.986;2022-10-03T18:28:12;100890.84;;;16.50;61.14
58245;BME280;44550;43.864;25.986;2022-10-03T18:32:17;100899.88;;;16.34;61.73
58245;BME280;44550;43.864;25.986;2022-10-03T18:36:22;100908.66;;;16.36;61.67
58245;BME280;44550;43.864;25.986;2022-10-03T18:40:28;100918.47;;;16.26;61.50
58245;BME280;44550;43.864;25.986;2022-10-03T18:44:29;100922.03;;;16.22;61.72
58245;BME280;44550;43.864;25.986;2022-10-03T18:48:37;100924.84;;;16.08;61.56
58245;BME280;44550;43.864;25.986;2022-10-03T18:52:49;100939.00;;;16.01;62.36
58245;BME280;44550;43.864;25.986;2022-10-03T18:57:03;100922.56;;;15.81;62.34
58245;BME280;44550;43.864;25.986;2022-10-03T19:01:06;100953.25;;;15.89;62.58
58245;BME280;44550;43.864;25.986;2022-10-03T19:05:15;100954.13;;;15.85;62.76
58245;BME280;44550;43.864;25.986;2022-10-03T19:09:21;100958.47;;;15.91;62.47
58245;BME280;44550;43.864;25.986;2022-10-03T19:13:33;100958.63;;;15.77;62.51
58245;BME280;44550;43.864;25.986;2022-10-03T19:17:43;100961.25;;;15.79;62.73
58245;BME280;44550;43.864;25.986;2022-10-03T19:21:47;100965.66;;;15.78;62.63
58245;BME280;44550;43.864;25.986;2022-10-03T19:25:51;100939.59;;;15.47;63.26
58245;BME280;44550;43.864;25.986;2022-10-03T19:29:56;100953.50;;;15.66;63.69
58245;BME280;44550;43.864;25.986;2022-10-03T19:33:58;100971.19;;;15.49;64.95
58245;BME280;44550;43.864;25.986;2022-10-03T19:38:03;100982.78;;;15.30;66.18
58245;BME280;44550;43.864;25.986;2022-10-03T19:42:21;100987.19;;;15.31;66.68
58245;BME280;44550;43.864;25.986;2022-10-03T19:46:38;100961.97;;;14.99;67.03
58245;BME280;44550;43.864;25.986;2022-10-03T19:50:43;101001.41;;;15.08;67.70
58245;BME280;44550;43.864;25.986;2022-10-03T19:54:48;101001.53;;;14.90;68.14
58245;BME280;44550;43.864;25.986;2022-10-03T19:58:58;100970.09;;;14.65;67.90
58245;BME280;44550;43.864;25.986;2022-10-03T20:03:11;101001.56;;;14.87;67.56
58245;BME280;44550;43.864;25.986;2022-10-03T20:07:15;101007.72;;;14.87;67.50
58245;BME280;44550;43.864;25.986;2022-10-03T20:11:24;101005.09;;;14.79;66.85
58245;BME280;44550;43.864;25.986;2022-10-03T20:15:27;101008.59;;;14.83;66.66
58245;BME280;44550;43.864;25.986;2022-10-03T20:19:42;101003.34;;;14.80;66.59
58245;BME280;44550;43.864;25.986;2022-10-03T20:23:51;101014.72;;;14.85;66.81
58245;BME280;44550;43.864;25.986;2022-10-03T20:27:53;100988.56;;;14.56;67.03
58245;BME280;44550;43.864;25.986;2022-10-03T20:31:58;100991.09;;;14.74;66.70
58245;BME280;44550;43.864;25.986;2022-10-03T20:36:02;101014.78;;;14.73;67.18
58245;BME280;44550;43.864;25.986;2022-10-03T20:40:15;101026.25;;;14.70;67.92
58245;BME280;44550;43.864;25.986;2022-10-03T20:44:44;101039.44;;;14.60;68.65
58245;BME280;44550;43.864;25.986;2022-10-03T20:49:00;101018.44;;;14.47;69.10
58245;BME280;44550;43.864;25.986;2022-10-03T20:53:14;101025.44;;;14.45;69.42
58245;BME280;44550;43.864;25.986;2022-10-03T20:57:17;101021.09;;;14.33;69.70
58245;BME280;44550;43.864;25.986;2022-10-03T21:01:20;101026.34;;;14.33;69.51
58245;BME280;44550;43.864;25.986;2022-10-03T21:05:24;101029.88;;;14.32;69.62
58245;BME280;44550;43.864;25.986;2022-10-03T21:09:38;101005.31;;;14.33;69.03
58245;BME280;44550;43.864;25.986;2022-10-03T21:13:43;100982.66;;;14.05;69.51
58245;BME280;44550;43.864;25.986;2022-10-03T21:17:46;101028.13;;;14.27;69.44
58245;BME280;44550;43.864;25.986;2022-10-03T21:21:50;101032.56;;;14.22;69.39
58245;BME280;44550;43.864;25.986;2022-10-03T21:25:56;101027.31;;;14.09;69.93
58245;BME280;44550;43.864;25.986;2022-10-03T21:30:01;101034.31;;;14.15;69.72
58245;BME280;44550;43.864;25.986;2022-10-03T21:34:06;101023.84;;;13.91;70.15
58245;BME280;44550;43.864;25.986;2022-10-03T21:38:18;101039.66;;;13.92;70.89
58245;BME280;44550;43.864;25.986;2022-10-03T21:42:27;101023.91;;;13.66;71.45
58245;BME280;44550;43.864;25.986;2022-10-03T21:46:37;101045.81;;;13.74;71.90
58245;BME280;44550;43.864;25.986;2022-10-03T21:50:42;100999.44;;;13.32;72.96
58245;BME280;44550;43.864;25.986;2022-10-03T21:54:53;101007.31;;;13.43;72.73
58245;BME280;44550;43.864;25.986;2022-10-03T21:59:31;101026.56;;;13.65;72.52
58245;BME280;44550;43.864;25.986;2022-10-03T22:03:39;101025.66;;;13.64;72.31
58245;BME280;44550;43.864;25.986;2022-10-03T22:07:42;101027.44;;;13.62;72.47
58245;BME280;44550;43.864;25.986;2022-10-03T22:11:46;101035.28;;;13.67;72.29
58245;BME280;44550;43.864;25.986;2022-10-03T22:15:54;101002.06;;;13.41;72.53
58245;BME280;44550;43.864;25.986;2022-10-03T22:20:07;101034.44;;;13.57;72.41
58245;BME280;44550;43.864;25.986;2022-10-03T22:24:15;101027.41;;;13.57;72.38
58245;BME280;44550;43.864;25.986;2022-10-03T22:28:27;101038.81;;;13.72;72.25
58245;BME280;44550;43.864;25.986;2022-10-03T22:32:37;101048.44;;;13.73;72.11
58245;BME280;44550;43.864;25.986;2022-10-03T22:36:39;101037.97;;;13.54;72.35
58245;BME280;44550;43.864;25.986;2022-10-03T22:40:40;101045.84;;;13.34;73.27
58245;BME280;44550;43.864;25.986;2022-10-03T22:44:43;101051.94;;;13.33;73.58
58245;BME280;44550;43.864;25.986;2022-10-03T22:48:48;101057.22;;;13.36;73.62
58245;BME280;44550;43.864;25.986;2022-10-03T22:52:51;101049.34;;;13.38;73.63
58245;BME280;44550;43.864;25.986;2022-10-03T22:56:53;101050.16;;;13.20;74.04
58245;BME280;44550;43.864;25.986;2022-10-03T23:00:55;101064.22;;;13.36;73.86
58245;BME280;44550;43.864;25.986;2022-10-03T23:05:01;101059.78;;;13.13;74.59
58245;BME280;44550;43.864;25.986;2022-10-03T23:09:07;101063.34;;;13.25;74.38
58245;BME280;44550;43.864;25.986;2022-10-03T23:13:18;101069.47;;;13.25;74.35
58245;BME280;44550;43.864;25.986;2022-10-03T23:17:33;101072.94;;;13.23;74.62
58245;BME280;44550;43.864;25.986;2022-10-03T23:21:45;101065.91;;;13.23;74.69
58245;BME280;44550;43.864;25.986;2022-10-03T23:25:55;101068.53;;;13.12;74.82
58245;BME280;44550;43.864;25.986;2022-10-03T23:35:13;101072.00;;;12.98;75.18
58245;BME280;44550;43.864;25.986;2022-10-03T23:39:31;101078.16;;;12.98;75.25
58245;BME280;44550;43.864;25.986;2022-10-03T23:43:36;101085.97;;;12.87;75.23
58245;BME280;44550;43.864;25.986;2022-10-03T23:47:39;101064.09;;;12.84;75.16
58245;BME280;44550;43.864;25.986;2022-10-03T23:51:41;101074.63;;;12.93;74.85
58245;BME280;44550;43.864;25.986;2022-10-03T23:55:43;101085.09;;;12.85;75.26
58245;BME280;44550;43.864;25.986;2022-10-03T23:59:43;101092.03;;;12.74;75.45
